^^

Metar (rayon 200 km actualisée toutes les 30 minutes)






LFBU - Brie/Champniers, France
Distance de la station: SSE 07km
Mise à jour: 24/10/2014 09:30
partiellement nuageux
partiellement nuageux
 Wind from SE
Vent: SE 6 km/h
Température: 8°C
Point de Rosée: 6°C
Humidité: 87%
Baromètre: 1021 hPa
Nuages: partiellement nuageux
Visibilité: 10 km
2014/10/24 07:30 LFBU 240730Z AUTO 13003KT 9999 NSC 08/06 Q1021
LFBG - Cognac/Chateaubernard, France
Distance de la station: OSO 35km
Mise à jour: 24/10/2014 09:30
partiellement nuageux
partiellement nuageux
 Wind from calm
Vent: Vent calme
Température: 8°C
Point de Rosée: 6°C
Humidité: 87%
Baromètre: 1021 hPa
Nuages: partiellement nuageux
Visibilité: 10 km
2014/10/24 07:30 LFBG 240730Z AUTO 00000KT 9999 NSC 08/06 Q1021
 
LFBL - Limoges/Bellegarde, France
Distance de la station: E 82km
Mise à jour: 24/10/2014 09:30
partiellement nuageux
partiellement nuageux
 Wind from variable
Vent: variable 4 km/h
Température: 7°C
Point de Rosée: 5°C
Humidité: 87%
Baromètre: 1020 hPa
Nuages: partiellement nuageux
Visibilité: 10 km
2014/10/24 07:30 LFBL 240730Z AUTO VRB02KT 9999 NSC 07/05 Q1020
LFBI - Poitiers/France
Distance de la station: N 93km
Mise à jour: 24/10/2014 09:30
partiellement nuageux
partiellement nuageux
 Wind from NNE
Vent: NNE 4 km/h
Température: 9°C
Point de Rosée: 7°C
Humidité: 87%
Baromètre: 1021 hPa
Nuages: partiellement nuageux
Visibilité: 10 km
2014/10/24 07:30 LFBI 240730Z AUTO 03002KT 9999 NSC 09/07 Q1021
 
LFBH - La Rochelle/France
Distance de la station: ONO 106km
Mise à jour: 24/10/2014 09:30
partiellement nuageux
partiellement nuageux
 Wind from E
Vent: E 6 km/h
Température: 11°C
Point de Rosée: 8°C
Humidité: 82%
Baromètre: 1021 hPa
Nuages: partiellement nuageux
Visibilité: 10 km
2014/10/24 07:30 LFBH 240730Z AUTO 09003KT 9999 NSC 11/08 Q1021
LFBE - Bergerac/France
Distance de la station: SSE 107km
Mise à jour: 24/10/2014 09:30
partiellement nuageux
partiellement nuageux
 Wind from ENE
Vent: ENE 6 km/h
Température: 6°C
Point de Rosée: 6°C
Humidité: 100%
Baromètre: 1021 hPa
Nuages: partiellement nuageux
Visibilité: 7 km
2014/10/24 07:30 LFBE 240730Z AUTO 07003KT 7000 NSC 06/06 Q1021
 
LFBD - Bordeaux/France
Distance de la station: SSO 121km
Mise à jour: 24/10/2014 09:30
partiellement nuageux
partiellement nuageux
 Wind from ESE
Vent: ESE 7 km/h
Température: 9°C
Wind Chill: 8°C
Point de Rosée: 8°C
Humidité: 94%
Baromètre: 1020 hPa
Nuages: partiellement nuageux
Visibilité: 10 km
2014/10/24 07:30 LFBD 240730Z AUTO 11004KT 9999 NSC 09/08 Q1020
LFRI - La Roche-sur-Yon/France
Distance de la station: NO 156km
Mise à jour: 24/10/2014 09:30
partiellement nuageux
partiellement nuageux
 Wind from SE
Vent: SE 7 km/h
Température: 10°C
Wind Chill: 9°C
Point de Rosée: 7°C
Humidité: 82%
Baromètre: 1021 hPa
Nuages: partiellement nuageux
Visibilité: 10 km
2014/10/24 07:30 LFRI 240730Z AUTO 14004KT 9999 NSC 10/07 Q1021
 
LFBC - Cazaux/France
Distance de la station: SO 167km
Mise à jour: 24/10/2014 09:30
partiellement nuageux
partiellement nuageux
 Wind from ESE
Vent: ESE 4 km/h
Température: 8°C
Point de Rosée: 7°C
Humidité: 93%
Baromètre: 1020 hPa
Nuages: partiellement nuageux
Visibilité: 10 km
2014/10/24 07:30 LFBC 240730Z AUTO 12002KT 9999 NSC 08/07 Q1020
LFLX - Chateauroux/France
Distance de la station: NE 174km
Mise à jour: 24/10/2014 09:30
partiellement nuageux
partiellement nuageux
 Wind from variable
Vent: variable 4 km/h
Température: 7°C
Point de Rosée: 6°C
Humidité: 93%
Baromètre: 1021 hPa
Nuages: partiellement nuageux
Visibilité: 8 km
2014/10/24 07:30 LFLX 240730Z VRB02KT 8000 NSC 07/06 Q1021 NOSIG
 
LFBA - Agen/France
Distance de la station: SSE 179km
Mise à jour: 24/10/2014 09:30
Quelques Nuages
Quelques Nuages
 Wind from E
Vent: E 7 km/h
Température: 6°C
Wind Chill: 4°C
Point de Rosée: 6°C
Humidité: 100%
Baromètre: 1021 hPa
Nuages: Quelques Nuages
Visibilité: 10 km
Nuages details: Quelques Nuages 61 m
2014/10/24 07:30 LFBA 240730Z AUTO 09004KT 9999 FEW002 06/06 Q1021